createdAt,value
2019-01-19T00:01:31.877Z,7.80
2019-01-19T00:04:16.573Z,7.97
2019-01-19T00:07:00.981Z,7.83
2019-01-19T00:09:54.529Z,7.47
2019-01-19T00:12:39.441Z,6.80
2019-01-19T00:15:24.441Z,8.37
2019-01-19T00:18:09.198Z,7.87
2019-01-19T00:20:53.746Z,7.23
2019-01-19T00:23:38.681Z,7.47
2019-01-19T00:26:23.111Z,7.37
2019-01-19T00:29:08.129Z,7.57
2019-01-19T00:31:52.337Z,8.40
2019-01-19T00:34:37.083Z,8.00
2019-01-19T00:37:21.994Z,7.77
2019-01-19T00:40:06.662Z,7.97
2019-01-19T00:42:51.358Z,8.10
2019-01-19T00:45:44.839Z,8.03
2019-01-19T00:48:29.041Z,7.63
2019-01-19T00:51:14.033Z,7.83
2019-01-19T00:53:58.786Z,8.13
2019-01-19T00:56:43.546Z,7.20
2019-01-19T00:59:37.998Z,8.23
2019-01-19T01:02:23.051Z,8.40
2019-01-19T01:05:13.012Z,8.30
2019-01-19T01:08:06.321Z,7.77
2019-01-19T01:10:50.867Z,7.60
2019-01-19T01:13:35.555Z,8.00
2019-01-19T01:16:20.192Z,8.03
2019-01-19T01:19:04.879Z,7.50
2019-01-19T01:21:49.381Z,7.17
2019-01-19T01:24:43.987Z,7.77
2019-01-19T01:27:29.039Z,7.57
2019-01-19T01:30:22.719Z,7.37
2019-01-19T01:33:08.243Z,7.77
2019-01-19T01:36:01.631Z,7.93
2019-01-19T01:38:46.277Z,7.77
2019-01-19T01:41:30.911Z,7.73
2019-01-19T01:44:15.659Z,7.13
2019-01-19T01:47:00.028Z,7.73
2019-01-19T01:49:53.455Z,7.73
2019-01-19T01:52:38.138Z,7.83
2019-01-19T01:55:22.839Z,8.13
2019-01-19T01:58:07.215Z,7.57
2019-01-19T02:00:51.317Z,7.57
2019-01-19T02:03:45.696Z,7.93
2019-01-19T02:06:39.463Z,8.20
2019-01-19T02:09:32.947Z,7.93
2019-01-19T02:12:17.602Z,7.60
2019-01-19T02:15:02.223Z,8.37
2019-01-19T02:17:46.722Z,8.50
2019-01-19T02:20:40.087Z,7.57
2019-01-19T02:23:24.879Z,8.13
2019-01-19T02:26:09.592Z,8.03
2019-01-19T02:28:54.370Z,8.03
2019-01-19T02:31:39.031Z,7.47
2019-01-19T02:34:23.121Z,7.50
2019-01-19T02:37:16.582Z,8.70
2019-01-19T02:40:01.210Z,7.47
2019-01-19T02:42:46.005Z,7.57
2019-01-19T02:45:30.487Z,8.20
2019-01-19T02:48:15.495Z,7.50
2019-01-19T02:50:59.915Z,7.50
2019-01-19T02:53:44.375Z,7.67
2019-01-19T02:56:37.538Z,7.30
2019-01-19T02:59:22.502Z,7.87
2019-01-19T03:02:06.915Z,7.90
2019-01-19T03:04:51.772Z,7.43
2019-01-19T03:07:37.784Z,7.73
2019-01-19T03:10:31.214Z,7.47
2019-01-19T03:13:15.879Z,8.43
2019-01-19T03:16:00.762Z,7.83
2019-01-19T03:18:45.132Z,7.27
2019-01-19T03:21:29.953Z,8.30
2019-01-19T03:24:14.580Z,7.80
2019-01-19T03:26:58.929Z,7.90
2019-01-19T03:29:51.827Z,7.57
2019-01-19T03:32:36.433Z,7.67
2019-01-19T03:35:20.717Z,7.67
2019-01-19T03:38:13.962Z,7.90
2019-01-19T03:40:58.731Z,8.17
2019-01-19T03:43:43.584Z,8.10
2019-01-19T03:46:28.372Z,8.43
2019-01-19T03:49:13.008Z,7.77
2019-01-19T03:52:07.474Z,7.77
2019-01-19T03:54:52.111Z,8.43
2019-01-19T03:57:36.694Z,7.60
2019-01-19T04:00:21.267Z,8.17
2019-01-19T04:03:14.752Z,7.53
2019-01-19T04:05:59.635Z,8.13
2019-01-19T04:08:53.080Z,8.20
2019-01-19T04:11:37.742Z,8.30
2019-01-19T04:14:22.281Z,8.00
2019-01-19T04:17:06.871Z,8.43
2019-01-19T04:20:00.571Z,8.37
2019-01-19T04:22:54.579Z,7.80
2019-01-19T04:25:41.677Z,8.47
2019-01-19T04:28:26.999Z,8.23
2019-01-19T04:31:11.420Z,8.53
2019-01-19T04:33:56.656Z,8.47
2019-01-19T04:36:41.067Z,8.47
2019-01-19T04:39:25.812Z,8.00
2019-01-19T04:42:10.891Z,8.43
2019-01-19T04:44:55.746Z,8.13
2019-01-19T04:47:40.332Z,8.50
2019-01-19T04:50:24.423Z,8.30
2019-01-19T04:53:18.058Z,8.50
2019-01-19T04:56:02.820Z,8.10
2019-01-19T04:58:47.553Z,8.37
2019-01-19T05:01:32.402Z,8.50
2019-01-19T05:04:17.094Z,8.27
2019-01-19T05:07:01.933Z,8.47
2019-01-19T05:09:46.296Z,7.90
2019-01-19T05:12:30.914Z,7.90
2019-01-19T05:15:16.119Z,7.37
2019-01-19T05:18:01.013Z,7.73
2019-01-19T05:20:46.096Z,8.40
2019-01-19T05:23:30.471Z,7.80
2019-01-19T05:26:15.243Z,8.53
2019-01-19T05:29:09.589Z,8.03
2019-01-19T05:31:54.352Z,8.17
2019-01-19T05:34:39.135Z,7.97
2019-01-19T05:37:24.089Z,7.70
2019-01-19T05:40:08.311Z,8.20
2019-01-19T05:42:52.676Z,8.00
2019-01-19T05:45:46.316Z,8.53
2019-01-19T05:48:30.904Z,7.73
2019-01-19T05:51:15.361Z,8.00
2019-01-19T05:53:59.908Z,7.97
2019-01-19T05:56:44.807Z,8.23
2019-01-19T05:59:29.609Z,8.03
2019-01-19T06:02:14.460Z,7.77
2019-01-19T06:04:58.984Z,7.90
2019-01-19T06:07:52.183Z,8.63
2019-01-19T06:10:37.333Z,9.10
2019-01-19T06:13:22.112Z,8.50
2019-01-19T06:16:06.881Z,9.03
2019-01-19T06:18:52.223Z,8.57
2019-01-19T06:24:53.962Z,8.50
2019-01-19T06:27:38.332Z,8.57
2019-01-19T06:30:31.479Z,8.27
2019-01-19T06:33:16.473Z,8.23
2019-01-19T06:36:01.168Z,8.37
2019-01-19T06:38:45.715Z,8.07
2019-01-19T06:41:30.315Z,8.80
2019-01-19T06:44:14.757Z,8.00
2019-01-19T06:47:07.950Z,8.17
2019-01-19T06:49:52.502Z,8.27
2019-01-19T06:52:37.392Z,7.77
2019-01-19T06:55:21.744Z,8.07
2019-01-19T06:58:06.167Z,8.30
2019-01-19T07:00:59.577Z,8.07
2019-01-19T07:03:44.480Z,7.87
2019-01-19T07:06:28.760Z,7.50
2019-01-19T07:09:13.499Z,8.37
2019-01-19T07:11:58.335Z,7.47
2019-01-19T07:14:42.964Z,8.10
2019-01-19T07:17:36.712Z,8.90
2019-01-19T07:20:31.106Z,7.50
2019-01-19T07:23:15.862Z,8.33
2019-01-19T07:26:09.137Z,8.30
2019-01-19T07:28:53.984Z,7.97
2019-01-19T07:31:38.538Z,8.30
2019-01-19T07:34:23.440Z,7.70
2019-01-19T07:37:09.957Z,8.47
2019-01-19T07:39:54.439Z,8.13
2019-01-19T07:42:40.427Z,8.00
2019-01-19T07:45:24.995Z,7.43
2019-01-19T07:48:24.872Z,7.37
2019-01-19T07:51:18.444Z,6.93
2019-01-19T07:54:03.175Z,8.23
2019-01-19T07:56:48.295Z,7.50
2019-01-19T07:59:32.959Z,7.87
2019-01-19T08:02:18.009Z,8.03
2019-01-19T08:05:11.827Z,6.90
2019-01-19T08:07:56.559Z,7.57
2019-01-19T08:10:41.048Z,8.10
2019-01-19T08:13:25.686Z,7.70
2019-01-19T08:16:10.215Z,7.43
2019-01-19T08:19:03.152Z,7.87
2019-01-19T08:21:48.133Z,7.27
2019-01-19T08:24:32.503Z,7.40
2019-01-19T08:27:17.055Z,8.83
2019-01-19T08:30:10.023Z,7.40
2019-01-19T08:32:54.607Z,7.30
2019-01-19T08:35:40.127Z,8.33
2019-01-19T08:38:24.490Z,8.30
2019-01-19T08:41:09.136Z,8.50
2019-01-19T08:43:55.814Z,8.10
2019-01-19T08:46:40.555Z,7.80
2019-01-19T08:49:25.966Z,7.70
2019-01-19T08:52:19.432Z,7.43
2019-01-19T08:55:04.087Z,7.90
2019-01-19T08:57:48.952Z,8.23
2019-01-19T09:00:33.287Z,8.37
2019-01-19T09:03:18.179Z,8.13
2019-01-19T09:06:03.764Z,10.90
2019-01-19T09:08:47.999Z,9.93
2019-01-19T09:11:32.938Z,10.23
2019-01-19T09:14:17.863Z,8.77
2019-01-19T09:17:02.614Z,10.33
2019-01-19T09:19:47.544Z,11.53
2019-01-19T09:22:32.492Z,8.60
2019-01-19T09:25:16.852Z,8.93
2019-01-19T09:28:01.499Z,9.83
2019-01-19T09:30:56.392Z,10.43
2019-01-19T09:33:41.267Z,8.80
2019-01-19T09:36:35.016Z,9.53
2019-01-19T09:39:19.531Z,9.93
2019-01-19T09:42:04.078Z,9.43
2019-01-19T09:44:48.939Z,9.37
2019-01-19T09:47:33.648Z,8.40
2019-01-19T09:50:18.508Z,8.57
2019-01-19T09:53:02.949Z,8.80
2019-01-19T09:55:56.480Z,9.10
2019-01-19T09:58:40.995Z,10.50
2019-01-19T10:01:25.619Z,8.53
2019-01-19T10:04:10.272Z,9.70
2019-01-19T10:06:54.691Z,12.03
2019-01-19T10:09:47.862Z,9.30
2019-01-19T10:12:32.816Z,8.80
2019-01-19T10:15:17.419Z,8.83
2019-01-19T10:18:02.380Z,8.80
2019-01-19T10:20:46.840Z,8.57
2019-01-19T10:23:31.454Z,8.97
2019-01-19T10:26:16.007Z,8.63
2019-01-19T10:29:12.203Z,8.87
2019-01-19T10:31:56.819Z,10.10
2019-01-19T10:34:40.855Z,8.03
2019-01-19T10:37:34.824Z,8.87
2019-01-19T10:40:28.499Z,8.83
2019-01-19T10:43:13.386Z,8.80
2019-01-19T10:45:58.179Z,8.37
2019-01-19T10:48:43.107Z,8.30
2019-01-19T10:51:27.739Z,10.93
2019-01-19T10:54:12.611Z,8.83
2019-01-19T10:56:58.280Z,9.93
2019-01-19T10:59:42.667Z,10.27
2019-01-19T11:02:36.243Z,11.70
2019-01-19T11:05:20.866Z,10.73
2019-01-19T11:08:07.715Z,10.37
2019-01-19T11:11:01.897Z,8.70
2019-01-19T11:13:55.335Z,8.80
2019-01-19T11:16:39.971Z,10.27
2019-01-19T11:19:24.619Z,8.57
2019-01-19T11:22:09.199Z,8.60
2019-01-19T11:25:02.915Z,10.33
2019-01-19T11:27:56.375Z,9.73
2019-01-19T11:30:40.962Z,9.67
2019-01-19T11:33:25.387Z,10.47
2019-01-19T11:36:10.304Z,9.83
2019-01-19T11:39:05.081Z,8.83
2019-01-19T11:41:50.176Z,9.43
2019-01-19T11:44:43.716Z,9.30
2019-01-19T11:47:27.924Z,10.00
2019-01-19T11:50:12.715Z,9.83
2019-01-19T11:52:57.283Z,9.77
2019-01-19T11:55:51.163Z,10.10
2019-01-19T11:58:44.687Z,9.33
2019-01-19T12:01:29.343Z,9.20
2019-01-19T12:04:14.615Z,11.37
2019-01-19T12:06:59.382Z,11.10
2019-01-19T12:09:43.750Z,9.83
2019-01-19T12:12:28.489Z,9.93
2019-01-19T12:15:13.292Z,10.03
2019-01-19T12:17:57.854Z,10.17
2019-01-19T12:20:42.835Z,10.13
2019-01-19T12:23:27.543Z,10.67
2019-01-19T12:26:12.239Z,12.07
2019-01-19T12:28:57.084Z,10.87
2019-01-19T12:31:41.722Z,14.10
2019-01-19T12:34:25.184Z,13.57
2019-01-19T12:40:44.258Z,10.77
2019-01-19T12:43:28.557Z,11.77
2019-01-19T12:46:21.771Z,12.13
2019-01-19T12:49:06.565Z,10.40
2019-01-19T12:51:51.368Z,9.93
2019-01-19T12:54:35.859Z,11.20
2019-01-19T12:57:20.191Z,10.57
2019-01-19T13:00:13.817Z,11.07
2019-01-19T13:02:58.339Z,11.07
2019-01-19T13:05:42.887Z,10.53
2019-01-19T13:08:34.161Z,10.70
2019-01-19T13:11:14.860Z,13.13
2019-01-19T13:14:03.310Z,11.60
2019-01-19T13:16:45.359Z,13.10
2019-01-19T13:19:30.227Z,13.50
2019-01-19T13:22:15.072Z,11.40
2019-01-19T13:25:00.027Z,11.67
2019-01-19T13:27:44.979Z,11.80
2019-01-19T13:30:29.848Z,10.73
2019-01-19T13:33:14.471Z,12.00
2019-01-19T13:35:59.227Z,12.03
2019-01-19T13:38:43.623Z,11.83
2019-01-19T13:41:28.448Z,12.50
2019-01-19T13:44:13.186Z,12.07
2019-01-19T13:46:57.283Z,12.03
2019-01-19T13:49:42.423Z,11.10
2019-01-19T13:52:36.867Z,12.30
2019-01-19T13:55:21.588Z,12.87
2019-01-19T13:58:06.439Z,12.23
2019-01-19T14:00:51.131Z,11.43
2019-01-19T14:03:35.544Z,12.33
2019-01-19T14:06:29.112Z,12.50
2019-01-19T14:09:13.636Z,11.53
2019-01-19T14:11:58.260Z,12.23
2019-01-19T14:14:43.233Z,11.57
2019-01-19T14:17:28.454Z,11.70
2019-01-19T14:20:12.936Z,11.17
2019-01-19T14:22:57.465Z,10.93
2019-01-19T14:25:42.235Z,11.23
2019-01-19T14:28:27.575Z,11.33
2019-01-19T14:31:12.515Z,11.10
2019-01-19T14:33:56.747Z,12.50
2019-01-19T14:36:41.571Z,12.23
2019-01-19T14:39:25.947Z,10.60
2019-01-19T14:42:10.611Z,10.53
2019-01-19T14:45:04.057Z,12.17
2019-01-19T14:47:49.107Z,11.60
2019-01-19T14:50:42.583Z,10.87
2019-01-19T14:53:27.642Z,13.23
2019-01-19T14:56:12.340Z,12.17
2019-01-19T14:58:57.184Z,13.77
2019-01-19T15:01:41.929Z,18.33
2019-01-19T15:04:26.634Z,14.10
2019-01-19T15:07:11.163Z,11.67
2019-01-19T15:09:56.032Z,11.67
2019-01-19T15:12:40.600Z,13.23
2019-01-19T15:15:24.987Z,12.67
2019-01-19T15:18:18.864Z,11.60
2019-01-19T15:21:13.583Z,12.43
2019-01-19T15:24:06.904Z,10.67
2019-01-19T15:26:51.554Z,10.63
2019-01-19T15:29:36.283Z,10.30
2019-01-19T15:32:21.094Z,10.40
2019-01-19T15:35:05.869Z,9.70
2019-01-19T15:37:50.534Z,9.60
2019-01-19T15:40:35.128Z,9.73
2019-01-19T15:43:19.451Z,10.70
2019-01-19T15:46:13.068Z,10.07
2019-01-19T15:48:57.954Z,9.90
2019-01-19T15:51:42.587Z,9.67
2019-01-19T15:54:28.235Z,9.80
2019-01-19T15:57:14.965Z,9.53
2019-01-19T15:59:59.387Z,8.97
2019-01-19T16:02:52.947Z,9.87
2019-01-19T16:05:37.227Z,11.17
2019-01-19T16:08:21.944Z,11.57
2019-01-19T16:11:06.604Z,11.20
2019-01-19T16:13:51.668Z,10.87
2019-01-19T16:16:35.965Z,10.20
2019-01-19T16:19:29.467Z,9.77
2019-01-19T16:22:14.055Z,10.83
2019-01-19T16:25:00.183Z,10.20
2019-01-19T16:27:45.196Z,9.90
2019-01-19T16:30:29.725Z,10.13
2019-01-19T16:33:14.308Z,10.07
2019-01-19T16:35:59.225Z,10.60
2019-01-19T16:38:43.938Z,11.30
2019-01-19T16:41:29.012Z,11.73
2019-01-19T16:44:23.435Z,11.30
2019-01-19T16:47:08.295Z,11.77
2019-01-19T16:49:53.029Z,10.97
2019-01-19T16:52:38.092Z,16.10
2019-01-19T16:55:32.413Z,11.77
2019-01-19T16:58:17.606Z,12.17
2019-01-19T17:01:02.100Z,11.27
2019-01-19T17:03:46.455Z,11.53
2019-01-19T17:06:30.643Z,11.33
2019-01-19T17:09:15.292Z,11.37
2019-01-19T17:11:59.624Z,12.17
2019-01-19T17:14:44.589Z,12.17
2019-01-19T17:17:29.275Z,12.63
2019-01-19T17:20:13.799Z,12.27
2019-01-19T17:22:58.139Z,12.77
2019-01-19T17:25:51.543Z,13.27
2019-01-19T17:28:36.178Z,11.90
2019-01-19T17:31:20.603Z,13.07
2019-01-19T17:34:05.328Z,13.43
2019-01-19T17:36:50.232Z,12.57
2019-01-19T17:39:40.206Z,12.93
2019-01-19T17:42:29.551Z,12.13
2019-01-19T17:45:14.520Z,14.30
2019-01-19T17:48:00.807Z,15.73
2019-01-19T17:50:44.843Z,13.10
2019-01-19T17:53:38.008Z,12.73
2019-01-19T17:56:23.054Z,13.17
2019-01-19T17:59:07.884Z,13.93
2019-01-19T18:01:52.628Z,15.43
2019-01-19T18:04:37.227Z,15.07
2019-01-19T18:07:21.879Z,15.60
2019-01-19T18:10:06.362Z,13.20
2019-01-19T18:12:50.611Z,12.63
2019-01-19T18:15:44.175Z,11.83
2019-01-19T18:18:30.159Z,15.70
2019-01-19T18:21:14.811Z,18.10
2019-01-19T18:23:59.405Z,16.93
2019-01-19T18:26:52.663Z,16.03
2019-01-19T18:29:36.991Z,18.90
2019-01-19T18:32:21.940Z,19.23
2019-01-19T18:35:06.659Z,20.13
2019-01-19T18:37:51.297Z,17.50
2019-01-19T18:40:35.964Z,15.83
2019-01-19T18:43:29.273Z,15.27
2019-01-19T18:46:14.007Z,15.97
2019-01-19T18:48:58.800Z,14.37
2019-01-19T18:51:43.468Z,15.97
2019-01-19T18:54:28.328Z,15.20
2019-01-19T18:57:13.071Z,16.97
2019-01-19T18:59:57.476Z,14.97
2019-01-19T19:02:42.602Z,14.47
2019-01-19T19:05:27.519Z,15.53
2019-01-19T19:08:12.029Z,15.23
2019-01-19T19:10:56.387Z,15.90
2019-01-19T19:13:51.471Z,16.00
2019-01-19T19:16:36.190Z,16.37
2019-01-19T19:19:21.202Z,14.70
2019-01-19T19:22:15.011Z,15.27
2019-01-19T19:24:59.792Z,18.10
2019-01-19T19:27:44.220Z,15.87
2019-01-19T19:30:28.515Z,15.23
2019-01-19T19:33:13.205Z,17.03
2019-01-19T19:36:06.525Z,19.23
2019-01-19T19:38:51.243Z,20.30
2019-01-19T19:41:36.001Z,23.37
2019-01-19T19:44:20.579Z,25.60
2019-01-19T19:47:05.547Z,19.93
2019-01-19T19:49:50.664Z,19.37
2019-01-19T19:52:35.587Z,18.97
2019-01-19T19:55:20.138Z,18.17
2019-01-19T19:58:05.297Z,16.57
2019-01-19T20:00:59.144Z,15.00
2019-01-19T20:03:43.959Z,16.03
2019-01-19T20:06:29.104Z,15.43
2019-01-19T20:09:22.776Z,16.33
2019-01-19T20:12:08.467Z,16.70
2019-01-19T20:14:53.356Z,15.00
2019-01-19T20:17:37.968Z,15.13
2019-01-19T20:20:31.443Z,15.63
2019-01-19T20:23:15.990Z,14.93
2019-01-19T20:26:00.191Z,14.33
2019-01-19T20:28:44.804Z,14.93
2019-01-19T20:31:38.055Z,14.73
2019-01-19T20:34:22.587Z,15.07
2019-01-19T20:37:07.503Z,16.50
2019-01-19T20:39:52.734Z,15.47
2019-01-19T20:42:36.812Z,15.43
2019-01-19T20:45:21.903Z,14.60
2019-01-19T20:48:06.587Z,17.60
2019-01-19T20:50:51.996Z,16.83
2019-01-19T20:53:36.431Z,16.20
2019-01-19T20:56:21.111Z,15.80
2019-01-19T20:59:05.840Z,14.87
2019-01-19T21:01:50.188Z,14.80
2019-01-19T21:04:43.304Z,15.30
2019-01-19T21:07:28.120Z,16.27
2019-01-19T21:10:13.143Z,16.07
2019-01-19T21:12:57.579Z,15.70
2019-01-19T21:15:42.444Z,15.10
2019-01-19T21:18:27.223Z,14.83
2019-01-19T21:21:11.823Z,14.90
2019-01-19T21:23:56.739Z,14.77
2019-01-19T21:26:40.897Z,16.13
2019-01-19T21:29:40.388Z,14.90
2019-01-19T21:32:25.543Z,16.40
2019-01-19T21:35:19.172Z,16.20
2019-01-19T21:38:03.740Z,16.43
2019-01-19T21:40:48.648Z,16.93
2019-01-19T21:43:33.387Z,16.93
2019-01-19T21:46:17.791Z,15.63
2019-01-19T21:49:02.551Z,15.50
2019-01-19T21:51:47.240Z,15.77
2019-01-19T21:54:40.395Z,15.77
2019-01-19T21:57:25.690Z,14.90
2019-01-19T22:00:19.162Z,15.20
2019-01-19T22:03:04.027Z,15.90
2019-01-19T22:05:49.826Z,16.07
2019-01-19T22:08:34.599Z,16.40
2019-01-19T22:11:27.679Z,17.10
2019-01-19T22:14:12.495Z,16.80
2019-01-19T22:16:57.515Z,16.00
2019-01-19T22:19:41.667Z,15.27
2019-01-19T22:22:26.355Z,15.20
2019-01-19T22:25:11.013Z,15.60
2019-01-19T22:28:04.167Z,15.57
2019-01-19T22:30:48.902Z,14.53
2019-01-19T22:33:33.431Z,15.10
2019-01-19T22:36:17.559Z,17.23
2019-01-19T22:39:14.263Z,15.13
2019-01-19T22:41:59.559Z,15.10
2019-01-19T22:44:52.984Z,15.00
2019-01-19T22:47:37.823Z,15.70
2019-01-19T22:50:22.731Z,15.53
2019-01-19T22:53:07.468Z,16.67
2019-01-19T22:55:52.392Z,15.77
2019-01-19T22:58:37.259Z,15.80
2019-01-19T23:01:21.903Z,16.93
2019-01-19T23:04:06.991Z,16.10
2019-01-19T23:07:00.989Z,16.50
2019-01-19T23:09:54.452Z,14.80
2019-01-19T23:12:38.947Z,15.27
2019-01-19T23:15:23.431Z,14.60
2019-01-19T23:18:16.907Z,15.40
2019-01-19T23:21:01.235Z,15.30
2019-01-19T23:23:46.473Z,14.60
2019-01-19T23:26:31.258Z,15.37
2019-01-19T23:29:15.822Z,17.83
2019-01-19T23:32:00.047Z,15.93
2019-01-19T23:34:44.787Z,15.53
2019-01-19T23:37:38.227Z,15.20
2019-01-19T23:40:22.638Z,16.10
2019-01-19T23:43:06.632Z,16.43
2019-01-19T23:46:01.671Z,15.83
2019-01-19T23:48:46.659Z,16.03
2019-01-19T23:51:31.077Z,17.20
2019-01-19T23:54:15.442Z,15.53
2019-01-19T23:57:09.128Z,15.87
2019-01-19T23:59:53.931Z,16.83
